sensor_id;sensor_type;location;lat;lon;timestamp;P1;durP1;ratioP1;P2;durP2;ratioP2
13218;SDS011;6674;49.152;11.918;2022-07-11T00:02:14;0.80;;;0.80;;
13218;SDS011;6674;49.152;11.918;2022-07-11T00:04:41;2.70;;;0.90;;
13218;SDS011;6674;49.152;11.918;2022-07-11T00:07:09;2.20;;;0.70;;
13218;SDS011;6674;49.152;11.918;2022-07-11T00:09:35;1.03;;;0.80;;
13218;SDS011;6674;49.152;11.918;2022-07-11T00:12:02;0.90;;;0.77;;
13218;SDS011;6674;49.152;11.918;2022-07-11T00:14:29;0.63;;;0.63;;
13218;SDS011;6674;49.152;11.918;2022-07-11T00:16:58;1.13;;;0.77;;
13218;SDS011;6674;49.152;11.918;2022-07-11T00:19:26;0.70;;;0.50;;
13218;SDS011;6674;49.152;11.918;2022-07-11T00:21:54;0.50;;;0.50;;
13218;SDS011;6674;49.152;11.918;2022-07-11T00:24:20;2.40;;;0.80;;
13218;SDS011;6674;49.152;11.918;2022-07-11T00:26:49;1.30;;;0.80;;
13218;SDS011;6674;49.152;11.918;2022-07-11T00:29:16;1.10;;;0.70;;
13218;SDS011;6674;49.152;11.918;2022-07-11T00:31:44;1.00;;;0.70;;
13218;SDS011;6674;49.152;11.918;2022-07-11T00:34:10;1.23;;;0.90;;
13218;SDS011;6674;49.152;11.918;2022-07-11T00:36:39;1.93;;;1.20;;
13218;SDS011;6674;49.152;11.918;2022-07-11T00:39:06;1.40;;;0.80;;
13218;SDS011;6674;49.152;11.918;2022-07-11T00:41:32;1.00;;;0.80;;
13218;SDS011;6674;49.152;11.918;2022-07-11T00:43:59;1.37;;;0.90;;
13218;SDS011;6674;49.152;11.918;2022-07-11T00:46:27;1.17;;;0.80;;
13218;SDS011;6674;49.152;11.918;2022-07-11T00:48:55;0.50;;;0.50;;
13218;SDS011;6674;49.152;11.918;2022-07-11T00:51:22;0.87;;;0.80;;
13218;SDS011;6674;49.152;11.918;2022-07-11T00:53:51;1.17;;;0.90;;
13218;SDS011;6674;49.152;11.918;2022-07-11T00:56:20;1.53;;;1.10;;
13218;SDS011;6674;49.152;11.918;2022-07-11T00:58:54;1.27;;;0.90;;
13218;SDS011;6674;49.152;11.918;2022-07-11T01:01:22;1.83;;;1.13;;
13218;SDS011;6674;49.152;11.918;2022-07-11T01:03:49;1.57;;;1.23;;
13218;SDS011;6674;49.152;11.918;2022-07-11T01:06:16;1.63;;;0.90;;
13218;SDS011;6674;49.152;11.918;2022-07-11T01:08:43;1.77;;;1.00;;
13218;SDS011;6674;49.152;11.918;2022-07-11T01:11:11;1.20;;;0.90;;
13218;SDS011;6674;49.152;11.918;2022-07-11T01:13:41;1.23;;;1.10;;
13218;SDS011;6674;49.152;11.918;2022-07-11T01:16:09;2.03;;;1.13;;
13218;SDS011;6674;49.152;11.918;2022-07-11T01:18:39;2.43;;;1.37;;
13218;SDS011;6674;49.152;11.918;2022-07-11T01:21:09;2.77;;;1.30;;
13218;SDS011;6674;49.152;11.918;2022-07-11T01:23:44;1.40;;;1.30;;
13218;SDS011;6674;49.152;11.918;2022-07-11T01:26:11;3.40;;;1.53;;
13218;SDS011;6674;49.152;11.918;2022-07-11T01:28:38;1.97;;;1.20;;
13218;SDS011;6674;49.152;11.918;2022-07-11T01:31:04;3.40;;;1.47;;
13218;SDS011;6674;49.152;11.918;2022-07-11T01:33:31;1.30;;;1.20;;
13218;SDS011;6674;49.152;11.918;2022-07-11T01:35:59;1.20;;;1.10;;
13218;SDS011;6674;49.152;11.918;2022-07-11T01:38:26;1.57;;;1.30;;
13218;SDS011;6674;49.152;11.918;2022-07-11T01:40:54;1.13;;;1.03;;
13218;SDS011;6674;49.152;11.918;2022-07-11T01:43:21;2.50;;;1.00;;
13218;SDS011;6674;49.152;11.918;2022-07-11T01:45:49;2.30;;;1.30;;
13218;SDS011;6674;49.152;11.918;2022-07-11T01:48:16;1.87;;;1.30;;
13218;SDS011;6674;49.152;11.918;2022-07-11T01:50:45;2.80;;;1.20;;
13218;SDS011;6674;49.152;11.918;2022-07-11T01:53:11;2.07;;;1.30;;
13218;SDS011;6674;49.152;11.918;2022-07-11T01:55:38;1.63;;;1.33;;
13218;SDS011;6674;49.152;11.918;2022-07-11T01:58:07;2.47;;;1.20;;
13218;SDS011;6674;49.152;11.918;2022-07-11T02:00:36;1.87;;;1.00;;
13218;SDS011;6674;49.152;11.918;2022-07-11T02:03:03;1.93;;;1.30;;
13218;SDS011;6674;49.152;11.918;2022-07-11T02:05:30;2.97;;;1.20;;
13218;SDS011;6674;49.152;11.918;2022-07-11T02:07:56;1.77;;;1.10;;
13218;SDS011;6674;49.152;11.918;2022-07-11T02:10:39;2.57;;;1.23;;
13218;SDS011;6674;49.152;11.918;2022-07-11T02:13:10;0.87;;;0.77;;
13218;SDS011;6674;49.152;11.918;2022-07-11T02:15:37;2.37;;;1.20;;
13218;SDS011;6674;49.152;11.918;2022-07-11T02:18:05;1.60;;;1.30;;
13218;SDS011;6674;49.152;11.918;2022-07-11T02:20:32;3.30;;;1.50;;
13218;SDS011;6674;49.152;11.918;2022-07-11T02:23:00;1.57;;;0.97;;
13218;SDS011;6674;49.152;11.918;2022-07-11T02:25:27;1.63;;;1.10;;
13218;SDS011;6674;49.152;11.918;2022-07-11T02:27:54;1.60;;;1.20;;
13218;SDS011;6674;49.152;11.918;2022-07-11T02:30:22;3.63;;;1.70;;
13218;SDS011;6674;49.152;11.918;2022-07-11T02:32:49;1.83;;;1.30;;
13218;SDS011;6674;49.152;11.918;2022-07-11T02:35:16;1.73;;;0.80;;
13218;SDS011;6674;49.152;11.918;2022-07-11T02:37:43;2.17;;;1.20;;
13218;SDS011;6674;49.152;11.918;2022-07-11T02:40:11;2.20;;;1.30;;
13218;SDS011;6674;49.152;11.918;2022-07-11T02:42:38;2.40;;;0.90;;
13218;SDS011;6674;49.152;11.918;2022-07-11T02:45:05;1.80;;;1.20;;
13218;SDS011;6674;49.152;11.918;2022-07-11T02:47:35;3.77;;;1.53;;
13218;SDS011;6674;49.152;11.918;2022-07-11T02:50:03;1.70;;;0.93;;
13218;SDS011;6674;49.152;11.918;2022-07-11T02:52:31;3.43;;;1.67;;
13218;SDS011;6674;49.152;11.918;2022-07-11T02:54:57;1.77;;;1.00;;
13218;SDS011;6674;49.152;11.918;2022-07-11T02:57:24;2.40;;;1.23;;
13218;SDS011;6674;49.152;11.918;2022-07-11T02:59:50;1.57;;;1.03;;
13218;SDS011;6674;49.152;11.918;2022-07-11T03:02:17;1.03;;;0.90;;
13218;SDS011;6674;49.152;11.918;2022-07-11T03:04:45;0.93;;;0.70;;
13218;SDS011;6674;49.152;11.918;2022-07-11T03:07:11;1.73;;;1.20;;
13218;SDS011;6674;49.152;11.918;2022-07-11T03:09:38;1.67;;;0.80;;
13218;SDS011;6674;49.152;11.918;2022-07-11T03:12:05;1.53;;;0.97;;
13218;SDS011;6674;49.152;11.918;2022-07-11T03:14:32;1.40;;;1.10;;
13218;SDS011;6674;49.152;11.918;2022-07-11T03:16:59;1.37;;;1.00;;
13218;SDS011;6674;49.152;11.918;2022-07-11T03:19:25;2.73;;;1.03;;
13218;SDS011;6674;49.152;11.918;2022-07-11T03:21:54;2.93;;;1.10;;
13218;SDS011;6674;49.152;11.918;2022-07-11T03:24:20;2.13;;;1.10;;
13218;SDS011;6674;49.152;11.918;2022-07-11T03:26:47;3.43;;;1.30;;
13218;SDS011;6674;49.152;11.918;2022-07-11T03:29:13;1.53;;;1.20;;
13218;SDS011;6674;49.152;11.918;2022-07-11T03:31:40;1.73;;;1.30;;
13218;SDS011;6674;49.152;11.918;2022-07-11T03:34:06;1.93;;;0.87;;
13218;SDS011;6674;49.152;11.918;2022-07-11T03:36:33;1.80;;;0.87;;
13218;SDS011;6674;49.152;11.918;2022-07-11T03:39:01;1.70;;;0.80;;
13218;SDS011;6674;49.152;11.918;2022-07-11T03:41:28;1.47;;;0.90;;
13218;SDS011;6674;49.152;11.918;2022-07-11T03:43:54;1.23;;;0.90;;
13218;SDS011;6674;49.152;11.918;2022-07-11T03:46:21;2.30;;;1.00;;
13218;SDS011;6674;49.152;11.918;2022-07-11T03:48:48;1.47;;;1.00;;
13218;SDS011;6674;49.152;11.918;2022-07-11T03:51:15;1.27;;;0.70;;
13218;SDS011;6674;49.152;11.918;2022-07-11T03:53:42;1.40;;;0.70;;
13218;SDS011;6674;49.152;11.918;2022-07-11T03:56:10;0.70;;;0.70;;
13218;SDS011;6674;49.152;11.918;2022-07-11T03:58:37;0.87;;;0.73;;
13218;SDS011;6674;49.152;11.918;2022-07-11T04:01:03;1.10;;;1.00;;
13218;SDS011;6674;49.152;11.918;2022-07-11T04:03:30;1.30;;;1.20;;
13218;SDS011;6674;49.152;11.918;2022-07-11T04:05:56;1.57;;;0.80;;
13218;SDS011;6674;49.152;11.918;2022-07-11T04:08:23;0.70;;;0.70;;
13218;SDS011;6674;49.152;11.918;2022-07-11T04:10:50;0.70;;;0.60;;
13218;SDS011;6674;49.152;11.918;2022-07-11T04:13:18;1.50;;;0.53;;
13218;SDS011;6674;49.152;11.918;2022-07-11T04:15:44;0.93;;;0.83;;
13218;SDS011;6674;49.152;11.918;2022-07-11T04:18:11;0.73;;;0.57;;
13218;SDS011;6674;49.152;11.918;2022-07-11T04:20:37;1.37;;;0.77;;
13218;SDS011;6674;49.152;11.918;2022-07-11T04:23:04;1.37;;;0.70;;
13218;SDS011;6674;49.152;11.918;2022-07-11T04:25:31;0.93;;;0.57;;
13218;SDS011;6674;49.152;11.918;2022-07-11T04:27:59;1.30;;;0.50;;
13218;SDS011;6674;49.152;11.918;2022-07-11T04:30:27;0.63;;;0.43;;
13218;SDS011;6674;49.152;11.918;2022-07-11T04:32:54;0.83;;;0.57;;
13218;SDS011;6674;49.152;11.918;2022-07-11T04:35:21;1.63;;;0.93;;
13218;SDS011;6674;49.152;11.918;2022-07-11T04:37:48;2.50;;;0.80;;
13218;SDS011;6674;49.152;11.918;2022-07-11T04:40:15;2.23;;;0.77;;
13218;SDS011;6674;49.152;11.918;2022-07-11T04:42:42;1.83;;;0.87;;
13218;SDS011;6674;49.152;11.918;2022-07-11T04:45:09;0.60;;;0.60;;
13218;SDS011;6674;49.152;11.918;2022-07-11T04:47:37;0.60;;;0.60;;
13218;SDS011;6674;49.152;11.918;2022-07-11T04:50:04;1.23;;;0.77;;
13218;SDS011;6674;49.152;11.918;2022-07-11T04:52:31;1.23;;;0.60;;
13218;SDS011;6674;49.152;11.918;2022-07-11T04:54:58;1.10;;;0.50;;
13218;SDS011;6674;49.152;11.918;2022-07-11T04:57:25;1.67;;;0.80;;
13218;SDS011;6674;49.152;11.918;2022-07-11T04:59:52;0.93;;;0.50;;
13218;SDS011;6674;49.152;11.918;2022-07-11T05:02:19;0.77;;;0.67;;
13218;SDS011;6674;49.152;11.918;2022-07-11T05:04:47;1.30;;;0.80;;
13218;SDS011;6674;49.152;11.918;2022-07-11T05:07:13;1.53;;;0.80;;
13218;SDS011;6674;49.152;11.918;2022-07-11T05:09:41;1.43;;;0.70;;
13218;SDS011;6674;49.152;11.918;2022-07-11T05:12:08;1.87;;;0.90;;
13218;SDS011;6674;49.152;11.918;2022-07-11T05:14:34;0.70;;;0.70;;
13218;SDS011;6674;49.152;11.918;2022-07-11T05:17:01;2.20;;;0.97;;
13218;SDS011;6674;49.152;11.918;2022-07-11T05:19:27;1.63;;;1.00;;
13218;SDS011;6674;49.152;11.918;2022-07-11T05:21:55;0.93;;;0.73;;
13218;SDS011;6674;49.152;11.918;2022-07-11T05:24:22;3.07;;;1.13;;
13218;SDS011;6674;49.152;11.918;2022-07-11T05:26:48;1.73;;;1.20;;
13218;SDS011;6674;49.152;11.918;2022-07-11T05:29:15;1.27;;;0.90;;
13218;SDS011;6674;49.152;11.918;2022-07-11T05:31:42;0.97;;;0.80;;
13218;SDS011;6674;49.152;11.918;2022-07-11T05:34:15;0.80;;;0.80;;
13218;SDS011;6674;49.152;11.918;2022-07-11T05:36:42;1.73;;;1.07;;
13218;SDS011;6674;49.152;11.918;2022-07-11T05:39:17;2.00;;;1.10;;
13218;SDS011;6674;49.152;11.918;2022-07-11T05:41:44;1.20;;;0.83;;
13218;SDS011;6674;49.152;11.918;2022-07-11T05:44:12;1.60;;;0.80;;
13218;SDS011;6674;49.152;11.918;2022-07-11T05:46:38;0.87;;;0.70;;
13218;SDS011;6674;49.152;11.918;2022-07-11T05:49:06;1.10;;;1.00;;
13218;SDS011;6674;49.152;11.918;2022-07-11T05:51:33;1.43;;;1.00;;
13218;SDS011;6674;49.152;11.918;2022-07-11T05:54:00;1.43;;;1.07;;
13218;SDS011;6674;49.152;11.918;2022-07-11T05:56:28;0.93;;;0.67;;
13218;SDS011;6674;49.152;11.918;2022-07-11T05:58:54;1.03;;;0.70;;
13218;SDS011;6674;49.152;11.918;2022-07-11T06:01:23;1.77;;;1.00;;
13218;SDS011;6674;49.152;11.918;2022-07-11T06:03:50;1.47;;;0.80;;
13218;SDS011;6674;49.152;11.918;2022-07-11T06:06:17;1.27;;;0.70;;
13218;SDS011;6674;49.152;11.918;2022-07-11T06:08:44;1.67;;;0.80;;
13218;SDS011;6674;49.152;11.918;2022-07-11T06:11:12;1.00;;;0.83;;
13218;SDS011;6674;49.152;11.918;2022-07-11T06:13:41;2.43;;;1.40;;
13218;SDS011;6674;49.152;11.918;2022-07-11T06:16:09;1.43;;;1.00;;
13218;SDS011;6674;49.152;11.918;2022-07-11T06:18:36;2.13;;;1.50;;
13218;SDS011;6674;49.152;11.918;2022-07-11T06:21:05;3.03;;;1.00;;
13218;SDS011;6674;49.152;11.918;2022-07-11T06:23:32;2.33;;;1.20;;
13218;SDS011;6674;49.152;11.918;2022-07-11T06:26:00;1.63;;;1.00;;
13218;SDS011;6674;49.152;11.918;2022-07-11T06:28:27;0.73;;;0.73;;
13218;SDS011;6674;49.152;11.918;2022-07-11T06:30:55;2.03;;;1.40;;
13218;SDS011;6674;49.152;11.918;2022-07-11T06:33:22;3.20;;;1.53;;
13218;SDS011;6674;49.152;11.918;2022-07-11T06:35:49;1.83;;;1.33;;
13218;SDS011;6674;49.152;11.918;2022-07-11T06:38:16;1.70;;;1.60;;
13218;SDS011;6674;49.152;11.918;2022-07-11T06:40:42;2.00;;;1.80;;
13218;SDS011;6674;49.152;11.918;2022-07-11T06:43:09;1.73;;;1.50;;
13218;SDS011;6674;49.152;11.918;2022-07-11T06:45:36;1.93;;;1.73;;
13218;SDS011;6674;49.152;11.918;2022-07-11T06:48:10;1.53;;;1.30;;
13218;SDS011;6674;49.152;11.918;2022-07-11T06:50:37;1.37;;;1.27;;
13218;SDS011;6674;49.152;11.918;2022-07-11T06:53:04;2.53;;;1.63;;
13218;SDS011;6674;49.152;11.918;2022-07-11T06:55:32;4.50;;;1.50;;
13218;SDS011;6674;49.152;11.918;2022-07-11T06:57:59;2.00;;;1.80;;
13218;SDS011;6674;49.152;11.918;2022-07-11T07:00:25;2.13;;;1.60;;
13218;SDS011;6674;49.152;11.918;2022-07-11T07:02:54;1.37;;;1.10;;
13218;SDS011;6674;49.152;11.918;2022-07-11T07:05:23;1.57;;;1.10;;
13218;SDS011;6674;49.152;11.918;2022-07-11T07:07:50;1.00;;;0.90;;
13218;SDS011;6674;49.152;11.918;2022-07-11T07:10:17;1.47;;;0.93;;
13218;SDS011;6674;49.152;11.918;2022-07-11T07:12:45;1.43;;;1.07;;
13218;SDS011;6674;49.152;11.918;2022-07-11T07:15:11;1.00;;;1.00;;
13218;SDS011;6674;49.152;11.918;2022-07-11T07:17:38;2.27;;;1.17;;
13218;SDS011;6674;49.152;11.918;2022-07-11T07:20:05;2.03;;;1.10;;
13218;SDS011;6674;49.152;11.918;2022-07-11T07:22:36;0.90;;;0.90;;
13218;SDS011;6674;49.152;11.918;2022-07-11T07:25:04;1.60;;;1.30;;
13218;SDS011;6674;49.152;11.918;2022-07-11T07:27:32;1.03;;;1.03;;
13218;SDS011;6674;49.152;11.918;2022-07-11T07:30:00;1.17;;;1.07;;
13218;SDS011;6674;49.152;11.918;2022-07-11T07:32:28;0.70;;;0.70;;
13218;SDS011;6674;49.152;11.918;2022-07-11T07:34:55;1.43;;;1.23;;
13218;SDS011;6674;49.152;11.918;2022-07-11T07:37:22;1.43;;;1.10;;
13218;SDS011;6674;49.152;11.918;2022-07-11T07:39:49;1.30;;;1.20;;
13218;SDS011;6674;49.152;11.918;2022-07-11T07:42:16;1.33;;;1.23;;
13218;SDS011;6674;49.152;11.918;2022-07-11T07:44:43;2.53;;;1.10;;
13218;SDS011;6674;49.152;11.918;2022-07-11T07:47:09;0.70;;;0.70;;
13218;SDS011;6674;49.152;11.918;2022-07-11T07:49:36;1.43;;;1.20;;
13218;SDS011;6674;49.152;11.918;2022-07-11T07:52:02;1.33;;;1.00;;
13218;SDS011;6674;49.152;11.918;2022-07-11T07:54:29;0.70;;;0.70;;
13218;SDS011;6674;49.152;11.918;2022-07-11T07:56:57;0.83;;;0.83;;
13218;SDS011;6674;49.152;11.918;2022-07-11T07:59:24;1.00;;;0.90;;
13218;SDS011;6674;49.152;11.918;2022-07-11T08:01:50;0.83;;;0.83;;
13218;SDS011;6674;49.152;11.918;2022-07-11T08:04:16;0.87;;;0.63;;
13218;SDS011;6674;49.152;11.918;2022-07-11T08:06:42;1.10;;;1.00;;
13218;SDS011;6674;49.152;11.918;2022-07-11T08:09:09;1.10;;;1.00;;
13218;SDS011;6674;49.152;11.918;2022-07-11T08:11:37;1.03;;;0.73;;
13218;SDS011;6674;49.152;11.918;2022-07-11T08:14:06;0.90;;;0.60;;
13218;SDS011;6674;49.152;11.918;2022-07-11T08:16:33;0.97;;;0.60;;
13218;SDS011;6674;49.152;11.918;2022-07-11T08:19:01;0.50;;;0.50;;
13218;SDS011;6674;49.152;11.918;2022-07-11T08:21:31;0.60;;;0.60;;
13218;SDS011;6674;49.152;11.918;2022-07-11T08:23:58;1.13;;;0.73;;
13218;SDS011;6674;49.152;11.918;2022-07-11T08:26:25;0.30;;;0.30;;
13218;SDS011;6674;49.152;11.918;2022-07-11T08:28:52;0.77;;;0.60;;
13218;SDS011;6674;49.152;11.918;2022-07-11T08:31:21;1.13;;;0.60;;
13218;SDS011;6674;49.152;11.918;2022-07-11T08:33:47;0.77;;;0.60;;
13218;SDS011;6674;49.152;11.918;2022-07-11T08:36:14;0.93;;;0.63;;
13218;SDS011;6674;49.152;11.918;2022-07-11T08:38:42;0.50;;;0.50;;
13218;SDS011;6674;49.152;11.918;2022-07-11T08:41:12;0.40;;;0.40;;
13218;SDS011;6674;49.152;11.918;2022-07-11T08:43:42;0.40;;;0.40;;
13218;SDS011;6674;49.152;11.918;2022-07-11T08:46:10;0.30;;;0.30;;
13218;SDS011;6674;49.152;11.918;2022-07-11T08:48:41;0.40;;;0.40;;
13218;SDS011;6674;49.152;11.918;2022-07-11T08:51:08;0.40;;;0.20;;
13218;SDS011;6674;49.152;11.918;2022-07-11T08:53:37;0.43;;;0.40;;
13218;SDS011;6674;49.152;11.918;2022-07-11T08:56:07;0.40;;;0.40;;
13218;SDS011;6674;49.152;11.918;2022-07-11T08:58:35;1.07;;;0.50;;
13218;SDS011;6674;49.152;11.918;2022-07-11T09:01:05;1.13;;;0.50;;
13218;SDS011;6674;49.152;11.918;2022-07-11T09:03:32;0.30;;;0.30;;
13218;SDS011;6674;49.152;11.918;2022-07-11T09:06:03;0.70;;;0.33;;
13218;SDS011;6674;49.152;11.918;2022-07-11T09:08:29;0.20;;;0.20;;
13218;SDS011;6674;49.152;11.918;2022-07-11T09:10:57;0.50;;;0.50;;
13218;SDS011;6674;49.152;11.918;2022-07-11T09:13:26;0.50;;;0.40;;
13218;SDS011;6674;49.152;11.918;2022-07-11T09:16:00;0.27;;;0.27;;
13218;SDS011;6674;49.152;11.918;2022-07-11T09:18:29;0.30;;;0.30;;
13218;SDS011;6674;49.152;11.918;2022-07-11T09:20:57;0.70;;;0.50;;
13218;SDS011;6674;49.152;11.918;2022-07-11T09:23:44;1.13;;;0.20;;
13218;SDS011;6674;49.152;11.918;2022-07-11T09:26:31;0.33;;;0.33;;
13218;SDS011;6674;49.152;11.918;2022-07-11T09:28:59;0.37;;;0.30;;
13218;SDS011;6674;49.152;11.918;2022-07-11T09:31:27;0.40;;;0.40;;
13218;SDS011;6674;49.152;11.918;2022-07-11T09:33:59;0.30;;;0.30;;
13218;SDS011;6674;49.152;11.918;2022-07-11T09:36:37;0.63;;;0.30;;
13218;SDS011;6674;49.152;11.918;2022-07-11T09:39:07;0.40;;;0.20;;
13218;SDS011;6674;49.152;11.918;2022-07-11T09:41:37;0.30;;;0.30;;
13218;SDS011;6674;49.152;11.918;2022-07-11T09:44:11;0.30;;;0.30;;
13218;SDS011;6674;49.152;11.918;2022-07-11T09:46:42;0.27;;;0.20;;
13218;SDS011;6674;49.152;11.918;2022-07-11T09:49:11;0.37;;;0.27;;
13218;SDS011;6674;49.152;11.918;2022-07-11T09:51:38;0.33;;;0.33;;
13218;SDS011;6674;49.152;11.918;2022-07-11T09:54:07;0.37;;;0.20;;
13218;SDS011;6674;49.152;11.918;2022-07-11T09:56:36;0.20;;;0.17;;
13218;SDS011;6674;49.152;11.918;2022-07-11T09:59:05;0.10;;;0.10;;
13218;SDS011;6674;49.152;11.918;2022-07-11T10:01:34;0.27;;;0.20;;
13218;SDS011;6674;49.152;11.918;2022-07-11T10:04:01;0.13;;;0.10;;
13218;SDS011;6674;49.152;11.918;2022-07-11T10:06:30;0.10;;;0.10;;
13218;SDS011;6674;49.152;11.918;2022-07-11T10:08:57;0.10;;;0.10;;
13218;SDS011;6674;49.152;11.918;2022-07-11T10:11:25;0.23;;;0.20;;
13218;SDS011;6674;49.152;11.918;2022-07-11T10:13:52;0.10;;;0.10;;
13218;SDS011;6674;49.152;11.918;2022-07-11T10:16:24;0.10;;;0.10;;
13218;SDS011;6674;49.152;11.918;2022-07-11T10:19:02;0.10;;;0.10;;
13218;SDS011;6674;49.152;11.918;2022-07-11T10:21:39;0.20;;;0.00;;
13218;SDS011;6674;49.152;11.918;2022-07-11T10:24:26;0.10;;;0.00;;
13218;SDS011;6674;49.152;11.918;2022-07-11T10:27:02;0.40;;;0.20;;
13218;SDS011;6674;49.152;11.918;2022-07-11T10:29:36;0.80;;;0.20;;
13218;SDS011;6674;49.152;11.918;2022-07-11T10:32:06;1.03;;;0.17;;
13218;SDS011;6674;49.152;11.918;2022-07-11T10:34:34;0.10;;;0.10;;
13218;SDS011;6674;49.152;11.918;2022-07-11T10:37:02;0.23;;;0.10;;
13218;SDS011;6674;49.152;11.918;2022-07-11T10:39:30;0.30;;;0.10;;
13218;SDS011;6674;49.152;11.918;2022-07-11T10:42:00;0.20;;;0.17;;
13218;SDS011;6674;49.152;11.918;2022-07-11T10:44:47;0.10;;;0.10;;
13218;SDS011;6674;49.152;11.918;2022-07-11T10:47:33;0.13;;;0.10;;
13218;SDS011;6674;49.152;11.918;2022-07-11T10:50:02;0.20;;;0.10;;
13218;SDS011;6674;49.152;11.918;2022-07-11T10:52:51;0.20;;;0.20;;
13218;SDS011;6674;49.152;11.918;2022-07-11T10:55:28;0.93;;;0.20;;
13218;SDS011;6674;49.152;11.918;2022-07-11T10:58:07;0.10;;;0.10;;
13218;SDS011;6674;49.152;11.918;2022-07-11T11:00:37;0.43;;;0.30;;
13218;SDS011;6674;49.152;11.918;2022-07-11T11:03:05;1.03;;;0.30;;
13218;SDS011;6674;49.152;11.918;2022-07-11T11:05:42;0.10;;;0.10;;
13218;SDS011;6674;49.152;11.918;2022-07-11T11:08:39;0.30;;;0.10;;
13218;SDS011;6674;49.152;11.918;2022-07-11T11:16:52;0.20;;;0.10;;
13218;SDS011;6674;49.152;11.918;2022-07-11T11:22:19;0.10;;;0.10;;
13218;SDS011;6674;49.152;11.918;2022-07-11T11:24:47;0.10;;;0.10;;
13218;SDS011;6674;49.152;11.918;2022-07-11T11:27:16;0.20;;;0.20;;
13218;SDS011;6674;49.152;11.918;2022-07-11T11:29:46;0.20;;;0.20;;
13218;SDS011;6674;49.152;11.918;2022-07-11T11:32:15;0.00;;;0.00;;
13218;SDS011;6674;49.152;11.918;2022-07-11T11:34:42;0.83;;;0.33;;
13218;SDS011;6674;49.152;11.918;2022-07-11T11:37:09;0.20;;;0.10;;
13218;SDS011;6674;49.152;11.918;2022-07-11T11:39:37;0.10;;;0.10;;
13218;SDS011;6674;49.152;11.918;2022-07-11T11:42:05;0.77;;;0.17;;
13218;SDS011;6674;49.152;11.918;2022-07-11T11:44:34;0.30;;;0.20;;
13218;SDS011;6674;49.152;11.918;2022-07-11T11:47:14;0.30;;;0.20;;
13218;SDS011;6674;49.152;11.918;2022-07-11T11:49:41;0.17;;;0.17;;
13218;SDS011;6674;49.152;11.918;2022-07-11T11:52:08;0.30;;;0.20;;
13218;SDS011;6674;49.152;11.918;2022-07-11T11:54:38;0.10;;;0.10;;
13218;SDS011;6674;49.152;11.918;2022-07-11T11:57:05;0.20;;;0.20;;
13218;SDS011;6674;49.152;11.918;2022-07-11T11:59:35;0.43;;;0.10;;
13218;SDS011;6674;49.152;11.918;2022-07-11T12:02:03;0.90;;;0.30;;
13218;SDS011;6674;49.152;11.918;2022-07-11T12:04:31;0.23;;;0.20;;
13218;SDS011;6674;49.152;11.918;2022-07-11T12:07:00;0.10;;;0.10;;
13218;SDS011;6674;49.152;11.918;2022-07-11T12:09:27;0.30;;;0.30;;
13218;SDS011;6674;49.152;11.918;2022-07-11T12:12:18;0.33;;;0.23;;
13218;SDS011;6674;49.152;11.918;2022-07-11T12:15:06;0.47;;;0.47;;
13218;SDS011;6674;49.152;11.918;2022-07-11T12:17:47;0.77;;;0.30;;
13218;SDS011;6674;49.152;11.918;2022-07-11T12:23:06;0.33;;;0.20;;
13218;SDS011;6674;49.152;11.918;2022-07-11T12:25:38;0.27;;;0.20;;
13218;SDS011;6674;49.152;11.918;2022-07-11T12:28:07;0.30;;;0.30;;
13218;SDS011;6674;49.152;11.918;2022-07-11T12:30:35;0.30;;;0.30;;
13218;SDS011;6674;49.152;11.918;2022-07-11T12:33:04;0.40;;;0.40;;
13218;SDS011;6674;49.152;11.918;2022-07-11T12:35:32;0.20;;;0.20;;
13218;SDS011;6674;49.152;11.918;2022-07-11T12:38:00;0.40;;;0.20;;
13218;SDS011;6674;49.152;11.918;2022-07-11T12:40:29;0.50;;;0.40;;
13218;SDS011;6674;49.152;11.918;2022-07-11T12:42:56;0.77;;;0.23;;
13218;SDS011;6674;49.152;11.918;2022-07-11T12:45:23;0.93;;;0.33;;
13218;SDS011;6674;49.152;11.918;2022-07-11T12:47:49;0.30;;;0.30;;
13218;SDS011;6674;49.152;11.918;2022-07-11T12:50:18;0.20;;;0.20;;
13218;SDS011;6674;49.152;11.918;2022-07-11T12:52:46;0.30;;;0.30;;
13218;SDS011;6674;49.152;11.918;2022-07-11T12:55:22;0.30;;;0.30;;
13218;SDS011;6674;49.152;11.918;2022-07-11T12:58:03;0.33;;;0.33;;
13218;SDS011;6674;49.152;11.918;2022-07-11T13:00:32;0.33;;;0.30;;
13218;SDS011;6674;49.152;11.918;2022-07-11T13:03:01;0.40;;;0.40;;
13218;SDS011;6674;49.152;11.918;2022-07-11T13:05:29;0.40;;;0.40;;
13218;SDS011;6674;49.152;11.918;2022-07-11T13:07:57;0.60;;;0.60;;
13218;SDS011;6674;49.152;11.918;2022-07-11T13:10:43;2.00;;;0.67;;
13218;SDS011;6674;49.152;11.918;2022-07-11T13:13:25;0.50;;;0.50;;
13218;SDS011;6674;49.152;11.918;2022-07-11T13:15:51;0.50;;;0.50;;
13218;SDS011;6674;49.152;11.918;2022-07-11T13:18:19;0.40;;;0.40;;
13218;SDS011;6674;49.152;11.918;2022-07-11T13:20:46;1.00;;;0.50;;
13218;SDS011;6674;49.152;11.918;2022-07-11T13:23:12;0.70;;;0.70;;
13218;SDS011;6674;49.152;11.918;2022-07-11T13:25:39;0.40;;;0.40;;
13218;SDS011;6674;49.152;11.918;2022-07-11T13:28:08;0.30;;;0.30;;
13218;SDS011;6674;49.152;11.918;2022-07-11T13:30:37;0.60;;;0.60;;
13218;SDS011;6674;49.152;11.918;2022-07-11T13:33:11;0.50;;;0.40;;
13218;SDS011;6674;49.152;11.918;2022-07-11T13:35:37;0.40;;;0.40;;
13218;SDS011;6674;49.152;11.918;2022-07-11T13:38:05;0.30;;;0.30;;
13218;SDS011;6674;49.152;11.918;2022-07-11T13:40:32;0.37;;;0.37;;
13218;SDS011;6674;49.152;11.918;2022-07-11T13:43:00;0.80;;;0.47;;
13218;SDS011;6674;49.152;11.918;2022-07-11T13:45:28;0.30;;;0.30;;
13218;SDS011;6674;49.152;11.918;2022-07-11T13:47:56;0.47;;;0.47;;
13218;SDS011;6674;49.152;11.918;2022-07-11T13:50:24;0.60;;;0.47;;
13218;SDS011;6674;49.152;11.918;2022-07-11T13:52:51;0.30;;;0.30;;
13218;SDS011;6674;49.152;11.918;2022-07-11T13:55:19;0.63;;;0.40;;
13218;SDS011;6674;49.152;11.918;2022-07-11T13:57:55;0.63;;;0.63;;
13218;SDS011;6674;49.152;11.918;2022-07-11T14:00:23;0.30;;;0.30;;
13218;SDS011;6674;49.152;11.918;2022-07-11T14:02:53;0.30;;;0.30;;
13218;SDS011;6674;49.152;11.918;2022-07-11T14:05:19;0.50;;;0.50;;
13218;SDS011;6674;49.152;11.918;2022-07-11T14:07:46;0.97;;;0.30;;
13218;SDS011;6674;49.152;11.918;2022-07-11T14:10:13;0.40;;;0.40;;
13218;SDS011;6674;49.152;11.918;2022-07-11T14:12:40;0.23;;;0.23;;
13218;SDS011;6674;49.152;11.918;2022-07-11T14:15:08;0.40;;;0.30;;
13218;SDS011;6674;49.152;11.918;2022-07-11T14:17:35;0.53;;;0.20;;
13218;SDS011;6674;49.152;11.918;2022-07-11T14:20:03;0.20;;;0.20;;
13218;SDS011;6674;49.152;11.918;2022-07-11T14:22:37;0.07;;;0.07;;
13218;SDS011;6674;49.152;11.918;2022-07-11T14:25:04;0.30;;;0.20;;
13218;SDS011;6674;49.152;11.918;2022-07-11T14:27:31;0.50;;;0.10;;
13218;SDS011;6674;49.152;11.918;2022-07-11T14:29:57;0.10;;;0.10;;
13218;SDS011;6674;49.152;11.918;2022-07-11T14:32:25;0.03;;;0.03;;
13218;SDS011;6674;49.152;11.918;2022-07-11T14:34:53;0.37;;;0.20;;
13218;SDS011;6674;49.152;11.918;2022-07-11T14:37:21;0.17;;;0.17;;
13218;SDS011;6674;49.152;11.918;2022-07-11T14:39:48;0.30;;;0.10;;
13218;SDS011;6674;49.152;11.918;2022-07-11T14:42:15;0.10;;;0.10;;
13218;SDS011;6674;49.152;11.918;2022-07-11T14:44:42;0.03;;;0.03;;
13218;SDS011;6674;49.152;11.918;2022-07-11T14:47:08;0.10;;;0.10;;
13218;SDS011;6674;49.152;11.918;2022-07-11T14:49:35;0.10;;;0.10;;
13218;SDS011;6674;49.152;11.918;2022-07-11T14:52:03;0.17;;;0.17;;
13218;SDS011;6674;49.152;11.918;2022-07-11T14:54:31;0.10;;;0.10;;
13218;SDS011;6674;49.152;11.918;2022-07-11T14:56:58;0.30;;;0.17;;
13218;SDS011;6674;49.152;11.918;2022-07-11T14:59:24;0.10;;;0.10;;
13218;SDS011;6674;49.152;11.918;2022-07-11T15:01:51;0.10;;;0.10;;
13218;SDS011;6674;49.152;11.918;2022-07-11T15:04:18;0.63;;;0.10;;
13218;SDS011;6674;49.152;11.918;2022-07-11T15:06:44;0.20;;;0.20;;
13218;SDS011;6674;49.152;11.918;2022-07-11T15:09:25;0.30;;;0.30;;